NWS Home NWS Lubbock West Texas Mesonet                      Daily Summary For 01/19/2019

Latest   N   C   S   Daily Sum   3hrΔ   24hrΔ   Soil Data 
Site Map   24hr Precip   72hr Precip   Google Plot

Previous  Date  


Station Time of Last Max Temp Min Temp Max/Min Dew Pt. Max/Min RH 10m Avg Wind 2m Avg Wind Peak Gust @ 33ft (mph) Potential Evapotranspiration
mm/day or in/day
Rain Sum Solar Rad
MJ/m^2
% Clear Day Red Flag
Abernathy 5ENE 05:10 PM 50 23 30 /20 92 / 36 18.8  (N) 14.3 38.4 mph 347° @ 0215 AM 1.8 or 0.07 0.00 14.8 109 0
Adrian 6WSW 05:10 PM 48 27 31 /23 90 / 38 10.8  (N) 8.6 30.7 mph 357° @ 1208 AM 1.5 or 0.06 0.02 13.7 105.4 0
Aiken 3WSW 05:10 PM 48 24 29 /22 90 / 42 19.6  (N) 15.5 42.2 mph 350° @ 0112 AM 1.8 or 0.07 0.00 15.6 116.2 0
Amarillo 15NNW 05:10 PM 48 21 28 /20 100 / 41 12.4  (N) 9.3 31.9 mph 342° @ 1226 AM 1.3 or 0.05 0.00 13.3 103.7 0
Amarillo 7SSE 05:10 PM 46 24 29 /21 88 / 43 16.2  (N) 12.3 40.3 mph 347° @ 1205 AM 1.5 or 0.06 0.00 14.5 111.4 0
Amarillo 9NNE 05:10 PM 46 21 28 /19 92 / 41 13.3  (N) 9.5 37.3 mph 355° @ 1225 AM 1.3 or 0.05 0.00 13.1 101.4 0
Amherst 1NE 05:10 PM 51 29 31 /25 88 / 41 15.7  (NW) 11.7 39.5 mph 329° @ 1255 AM 1.8 or 0.07 0.00 14.5 107.3 0
Andrews 2E 05:10 PM 58 33 31 /17 74 / 20 13.7  (N) 9.2 35.2 mph 338° @ 0225 AM 2.8 or 0.11 0.00 14.4 101.1 0
Anton 6SSW 05:10 PM 52 28 30 /24 87 / 37 16.5  (N) 12.1 37.5 mph 337° @ 1210 AM 2 or 0.08 0.00 14.7 107.9 0
Aspermont 3NE 05:10 PM 49 32 33 /23 92 / 42 20.3  (NW) 15.5 37.8 mph 332° @ 1235 AM 2 or 0.08 0.00 14.7 106.9 0
Big Bend NP - Persimmon Gap 05:10 PM 62 45 29 /17 50 / 20 9.5  (N) 7.8 23.2 mph 338° @ 0618 AM 2.8 or 0.11 0.00 16.8 108.5 0
Big Lake 1WNW 05:10 PM 56 36 35 /26 76 / 32 19.6  (NW) 15.8 40.6 mph 328° @ 0101 AM 2.8 or 0.11 0.00 16.8 113.5 0
Bootleg 11WNW 05:10 PM 50 24 30 /19 93 / 30 12.4  (N) 8.6 33 mph 329° @ 0330 AM 1.5 or 0.06 0.03 13 98.3 0
Boys Ranch 1WSW 05:10 PM 52 21 29 /19 97 / 35 6  (NW) 4.5 23.2 mph 348° @ 1237 AM 1 or 0.04 0.00 13.3 104.4 0
Brownfield 2S 05:10 PM 55 32 31 /23 85 / 29 16.2  (NW) 13.1 33.9 mph 346° @ 1250 AM 2.5 or 0.1 0.00 15 108 0
Canadian 6E 05:10 PM 36 23 27 /11 83 / 47 21.5  (N) 14.9 45.9 mph 340° @ 0234 AM 1.3 or 0.05 0.00 14.1 112.4 0
Caprock Canyons State Park 05:10 PM 47 30 29 /22 78 / 42 17.1  (N) 11.3 40.8 mph 329° @ 1240 AM 1.8 or 0.07 0.00 13.8 104.3 0
Childress 2NNE 05:10 PM 44 29 29 /18 80 / 36 22.5  (NW) 16.2 48.6 mph 336° @ 0355 AM 2 or 0.08 0.00 13.9 105.4 0
Clarendon 2WSW 05:10 PM 43 28 28 /20 82 / 52 24  (N) 19.9 46.4 mph 342° @ 0145 AM 1.8 or 0.07 0.00 11.8 91 0
Claude 12SW 05:10 PM 44 24 29 /22 92 / 44 19.7  (NW) 14.3 44.4 mph 336° @ 1224 AM 1.5 or 0.06 0.00 14.8 113.6 0
Clyde 2WNW 05:10 PM 47 32 34 /22 92 / 41 23.4  (NW) 16.9 43.5 mph 325° @ 0329 AM 2 or 0.08 0.00 14.9 105.6 0
Colorado City 5NW 05:10 PM 56 32 33 /24 91 / 32 17.5  (NW) 12.6 41.1 mph 336° @ 1216 AM 2.5 or 0.1 0.00 14.8 105.1 0
Coyanosa 2N 05:10 PM 60 37 33 /21 63 / 24 8.9  (NW) 6.3 22.4 mph 327° @ 1202 AM 2.3 or 0.09 0.00 15.8 107.2 0
Crane 1NNW 05:10 PM 59 33 35 /24 75 / 26 12.4  (N) 10.2 32.8 mph 348° @ 0319 AM 2.5 or 0.1 0.00 16.7 113.9 0
Crowell 1E 05:10 PM 43 31 33 /17 93 / 35 22.1  (N) 18.1 41.7 mph 342° @ 1213 AM 2 or 0.08 0.00 14.6 109.4 0
Dell City 05:10 PM 59 27 26 /18 69 / 22 6.4  (NW) 4.9 27.8 mph 308° @ 1211 AM 1.8 or 0.07 0.00 15.5 106.6 0
Denver City 7WNW 05:10 PM 56 29 32 /15 89 / 20 13.7  (NW) 10.2 38.2 mph 339° @ 1255 AM 2.3 or 0.09 0.00 14.8 105.5 0
Dimmitt 2NE 05:10 PM 48 25 32 /23 95 / 49 15.2  (N) 11.6 37.7 mph 348° @ 1235 AM 1.5 or 0.06 0.00 14.3 107.6 0
Dora NM 2SW 05:10 PM 54 28 31 /16 90 / 22 11.8  (N) 8.3 30.5 mph 349° @ 1220 AM 2 or 0.08 0.00 13.2 96.4 0
Dozier 3W 05:10 PM 43 27 28 /18 75 / 40 20.5  (N) 14.2 51.7 mph 350° @ 1202 AM 1.8 or 0.07 0.00 14.3 111.2 0
Earth 9WSW 05:10 PM 52 28 31 /25 89 / 36 13  (NW) 10 35.9 mph 338° @ 1228 AM 1.8 or 0.07 0.00 14.3 106.1 0
Endee NM 2SW 05:10 PM 54 26 29 /18 90 / 26 6.6  (NW) 4.7 20.9 mph 326° @ 0358 AM 1.3 or 0.05 0.00 13.8 105.4 0
Estelline 3SSE 05:10 PM 47 31 27 /20 68 / 38 20.1  (N) 16.9 41.4 mph 342° @ 0253 AM 2.3 or 0.09 0.00 14.2 108.5 0
Floydada 2NNE 05:10 PM 49 27 30 /22 93 / 36 18.1  (N) 12.6 40.8 mph 338° @ 0240 AM 2 or 0.08 0.00 14.6 108.1 0
Fluvanna 3WNW 05:10 PM 53 31 31 /24 93 / 35 22.9  (N) 19 44.1 mph 343° @ 1220 AM 2.5 or 0.1 0.00 14.7 105.3 0
Fort Chadbourne 05:10 PM 53 35 33 /24 77 / 35 16.9  (NW) 11.9 41.7 mph 334° @ 1257 AM 2.5 or 0.1 0.00 15.6 109.3 0
Fort Lancaster 05:10 PM 61 42 35 /24 65 / 27 12.2  (NW) 8.8 33.6 mph 310° @ 0349 AM 2.8 or 0.11 0.00 15.7 104.9 0
Fort Lewis CO 05:10 PM 39 -0 20 /-8 83 / 40 6.3  (N) 4.5 15.3 mph 275° @ 0225 PM 1 or 0.04 0.19 14 112.7 0
Fort McKavett 05:10 PM 59 37 38 /25 75 / 29 16  (NW) 9.7 36.1 mph 326° @ 0509 AM 3 or 0.12 0.00 16.1 108.5 0
Friona 2NE 05:10 PM 50 25 33 /23 100 / 43 11.6  (N) 7.4 36.9 mph 343° @ 0100 AM 1.5 or 0.06 0.02 15.2 114.7 0
Fritch 1WNW 05:10 PM 42 25 28 /22 87 / 55 11.2  (N) 8.4 37.4 mph 7° @ 1257 AM 1 or 0.04 0.00 10.3 80.9 0
Gail 2ESE 05:10 PM 56 34 29 /24 76 / 30 18.5  (NW) 13.6 45.3 mph 339° @ 0110 AM 2.8 or 0.11 0.00 14.9 106.4 0
Goodlett 3W 05:10 PM 43 30 31 /15 86 / 34 24.1  (N) 19.1 43.3 mph 333° @ 0405 AM 2 or 0.08 0.00 14.6 110.5 0
Goodnight 05:10 PM 43 26 30 /21 92 / 51 23.1  (N) 17.9 47 mph 337° @ 0103 AM 1.5 or 0.06 0.00 11 84.8 0
Graham 5SSW 05:10 PM 54 30 31 /25 91 / 33 19.8  (N) 13.9 58.7 mph 345° @ 1235 AM 2.3 or 0.09 0.00 14.4 103.3 0
Guadalupe Mtns Natl Park 05:10 PM 51 27 22 /11 67 / 21 10.1  (NW) 7.7 42.1 mph 339° @ 0153 AM 2 or 0.08 0.00 14.7 99.5 0
Guthrie 10WSW 05:10 PM 49 30 31 /22 89 / 38 20.2  (N) 15.4 40.6 mph 334° @ 1215 AM 2 or 0.08 0.00 13.7 100.6 0
Hackberry 2 SSE 05:10 PM 48 31 32 /20 97 / 37 20.6  (N) 16.4 39.6 mph 339° @ 1214 AM 2 or 0.08 0.01 16 119.5 0
Happy 1E 05:10 PM 46 22 30 /20 91 / 44 18.3  (N) 15 41.8 mph 348° @ 1219 AM 1.5 or 0.06 0.00 14.6 110.6 0
Hart 3N 05:10 PM 48 24 32 /23 96 / 48 15.3  (NW) 11.1 41.1 mph 338° @ 1205 AM 1.5 or 0.06 0.00 14.6 109.1 0
Haskell 1NW 05:10 PM 47 31 33 /22 96 / 42 23.2  (N) 18.4 42.6 mph 339° @ 1250 AM 2 or 0.08 0.00 14 102.3 0
Hereford 2NW 05:10 PM 49 25 33 /21 89 / 40 12  (N) 9.2 35.4 mph 354° @ 0105 AM 1.5 or 0.06 0.02 14.1 107.2 0
Hobbs NM 5NW 05:10 PM 56 32 31 /15 78 / 20 12  (N) 10.1 36.7 mph 352° @ 1202 AM 2.3 or 0.09 0.00 14.8 104.8 0
Jayton 1SSE 05:10 PM 51 31 30 /22 79 / 36 17.6  (NW) 14 38.7 mph 331° @ 1245 AM 2 or 0.08 0.00 14.8 107.7 0
Junction 1SSW 05:10 PM 63 40 37 /25 66 / 25 13.1  (NW) 10.5 32.6 mph 303° @ 0350 AM 3 or 0.12 0.00 13.7 91.2 0
Knox City 3NW 05:10 PM 49 32 33 /22 98 / 40 18.4  (N) 13.9 40.3 mph 333° @ 0100 AM 2 or 0.08 0.02 13.2 97.3 0
Lake Alan Henry 1NW 05:10 PM 55 31 33 /25 94 / 32 14.4  (N) 9.8 36.5 mph 338° @ 1204 AM 2.3 or 0.09 0.01 14.7 106.1 0
Lamesa 2SE 05:10 PM 56 33 32 /25 80 / 31 14.8  (NW) 6.4 40.4 mph 334° @ 1205 AM 2.3 or 0.09 0.00 16 113.3 0
Lesley 2S 05:10 PM 48 31 29 /21 73 / 42 21.8  (N) 16.1 43.2 mph 317° @ 0213 AM 2.3 or 0.09 0.00 14.4 110.5 0
Levelland 4S 05:10 PM 54 29 31 /22 89 / 30 14.8  (NW) 11.2 36.2 mph 333° @ 0215 AM 2.3 or 0.09 0.00 14.7 106.6 0
Lomax 1SSE 05:10 PM 58 35 32 /24 71 / 27 16.4  (N) 13.7 37.3 mph 341° @ 1210 AM 2.8 or 0.11 0.00 15.9 111.4 0
Lubbock 3WNW TTU 05:10 PM 53 28 33 /24 98 / 34 13.2  (N) 9 34.1 mph 343° @ 0140 AM 2 or 0.08 0.00 15.1 110.1 0
McCamey 1SSW 05:10 PM 60 37 35 /25 71 / 26 11.3  (NW) 9 34 mph 335° @ 0108 AM 2.5 or 0.1 0.00 14.3 96.8 0
McLean 1E 05:10 PM 39 25 26 /18 81 / 48 27.8  (N) 23.4 49 mph 340° @ 0140 AM 1.5 or 0.06 0.00 15.2 117.7 0
Memphis 1NE 05:10 PM 46 30 28 /21 73 / 42 21.2  (N) 17.3 54 mph 356° @ 1205 AM 2 or 0.08 0.00 12.2 93.7 0
Menard 2NW 05:10 PM 60 38 37 /25 73 / 29 18.4  (NW) 15.3 39.1 mph 324° @ 0316 AM 3.3 or 0.13 0.00 14.7 99.7 0
Mertzon 3NNE 05:10 PM 57 37 36 /24 71 / 32 16.3  (NW) 12.4 37.1 mph 326° @ 0213 AM 2.8 or 0.11 0.00 14.8 101.1 0
Morton 1ENE 05:10 PM 55 30 31 /21 86 / 27 12  (N) 8.6 35.6 mph 344° @ 1215 AM 2 or 0.08 0.00 14.2 103.4 0
Muleshoe 2SSW 05:10 PM 54 27 31 /24 93 / 30 9.5  (N) 6.5 28 mph 334° @ 1230 AM 1.8 or 0.07 0.00 14.6 108.1 0
New Home 05:10 PM 53 30 32 /25 92 / 34 15.5  (N) 9 36.7 mph 347° @ 0232 AM 2 or 0.08 0.00 14.8 107.2 0
Northfield 1S 05:10 PM 48 30 31 /22 96 / 39 17.3  (NW) 12.4 37.7 mph 342° @ 0330 AM 2 or 0.08 0.05 14.4 108.6 0
O'Donnell 1N 05:10 PM 55 30 30 /22 82 / 28 17.8  (NW) 13.1 41.1 mph 336° @ 1230 AM 2.5 or 0.1 0.00 13.3 95.2 0
Odell 4ENE 05:10 PM 41 29 31 /15 78 / 35 23  (NW) 17.1 43.8 mph 342° @ 1209 AM 1.8 or 0.07 0.00 14.4 109.3 0
Olton 6S 05:10 PM 49 25 30 /22 92 / 42 17  (N) 13.7 42.7 mph 342° @ 0115 AM 1.8 or 0.07 0.00 13.6 101.1 0
Paducah 10SW 05:10 PM 48 30 32 /23 97 / 40 21.5  (N) 11.6 42.7 mph 347° @ 1205 AM 2 or 0.08 0.00 12.8 95.5 0
Palo Duro 4E (JA Ranch) 05:10 PM 47 29 29 /21 79 / 43 20  (N) 15.9 46 mph 342° @ 0151 AM 2 or 0.08 0.00 11.9 91 0
Palo Duro Canyon SP Floor 05:10 PM 51 28 30 /22 84 / 37 11.9  (NW) 6.7 34.9 mph 336° @ 1255 AM 1.8 or 0.07 0.00 13.4 102.9 0
Palo Duro Canyon State Park Rim 05:10 PM 47 25 28 /20 83 / 41 15.7  (N) 9 40.3 mph 338° @ 0104 AM 1.8 or 0.07 0.02 14.9 114.1 0
Palo Duro Reservoir 1NW 05:10 PM 37 24 29 /20 87 / 69 20.2  (N) 15.1 43 mph 349° @ 0138 AM 1 or 0.04 0.00 8.2 66.1 0
Pampa 2E 05:10 PM 37 24 29 /20 98 / 66 25.6  (N) 21.6 49.5 mph 336° @ 0200 AM 1 or 0.04 0.00 10.3 80.4 0
Panhandle 1SSW 05:10 PM 41 25 29 /21 95 / 57 19.7  (N) 16.8 41.9 mph 339° @ 0235 AM 1.3 or 0.05 0.00 9.8 75.8 0
Plains 3N 05:10 PM 55 27 32 /19 88 / 25 13.5  (NW) 11.1 44.4 mph 335° @ 1215 AM 2 or 0.08 0.00 14.6 105.1 0
Plainview 1S 05:10 PM 49 26 30 /23 91 / 40 15.3  (N) 12 34.3 mph 334° @ 0100 AM 1.5 or 0.06 0.00 13.3 99.2 0
Post 1NE 05:10 PM 55 32 30 /23 83 / 29 18.3  (NW) 13 43.9 mph 339° @ 1205 AM 2.5 or 0.1 0.00 15.1 109.1 0
Ralls 1SE 05:10 PM 50 29 29 /22 86 / 34 19.5  (N) 16.3 38.2 mph 335° @ 1210 AM 2.3 or 0.09 0.00 14.9 108.8 0
Reese Center 05:10 PM 52 26 31 /23 90 / 35 17.3  (N) 13.2 36.7 mph 345° @ 0205 AM 2 or 0.08 0.00 15.7 114.9 0
Roaring Springs 3N 05:10 PM 47 29 32 /24 100 / 47 19.5  (NW) 14 40 mph 342° @ 0930 AM 1.8 or 0.07 0.00 13.2 98 0
Romero 11 SSW 05:10 PM 51 24 28 /21 89 / 32 7.9  (N) 5.6 23.3 mph 1° @ 1014 AM 1.3 or 0.05 0.00 13.4 104.1 0
Rotan 5W 05:10 PM 52 33 33 /24 96 / 35 18.7  (NW) 15.9 39 mph 325° @ 0120 AM 2.3 or 0.09 0.02 15.6 112.2 0
San Angelo 7NW 05:10 PM 55 37 35 /24 68 / 32 19.1  (NW) 15.5 43.3 mph 311° @ 1230 AM 3 or 0.12 0.00 15.9 109.4 0
Seagraves 1SW 05:10 PM 57 29 32 /19 85 / 23 14.7  (N) 10.3 41.5 mph 329° @ 1245 AM 2.5 or 0.1 0.00 13.2 94.2 0
Seminole 2NNE 05:10 PM 57 31 31 /17 78 / 21 13.4  (N) 9.9 37.1 mph 333° @ 0115 AM 2.5 or 0.1 0.00 15.2 107.9 0
Seymour 3NW 05:10 PM 43 31 33 /18 94 / 39 23.9  (NW) 19.6 44.4 mph 334° @ 0110 AM 1.8 or 0.07 0.02 14.7 109.2 0
Sierra Blanca 1SSE 05:10 PM 56 32 21 /11 52 / 18 7.9  (NW) 5.7 28.8 mph 331° @ 0137 AM 2 or 0.08 0.00 12.8 85.6 0
Silverton 7ESE 05:10 PM 47 27 28 /21 84 / 41 21.1  (N) 15.9 42.5 mph 338° @ 0300 AM 1.8 or 0.07 0.00 13.4 100.8 0
Slaton 2NE 05:10 PM 52 29 30 /24 94 / 35 17.3  (N) 13.2 47.6 mph 344° @ 1205 AM 2.3 or 0.09 0.00 13.7 99.9 0
Snyder 3E 05:10 PM 54 31 33 /25 99 / 34 21.3  (NW) 9.4 45.6 mph 329° @ 1210 AM 2.5 or 0.1 0.00 13.4 95.4 0
Snyder 3SSW 05:10 PM 54 32 33 /25 95 / 34 18  (NW) 14.2 45.5 mph 332° @ 1205 AM 2.5 or 0.1 0.00 15.1 107.3 0
South Plains 3ENE 05:10 PM 48 26 29 /22 90 / 37 16.5  (N) 12.7 35.7 mph 341° @ 0317 AM 1.8 or 0.07 0.00 14.4 107.4 0
Spur 1W 05:10 PM 52 30 31 /22 93 / 31 15.6  (N) 9.8 40.3 mph 347° @ 1220 AM 2 or 0.08 0.00 14.5 106.5 0
St. Lawrence 5SW 05:10 PM 57 35 34 /23 72 / 28 20.9  (NW) 16.9 47.6 mph 332° @ 0110 AM 3 or 0.12 0.00 15.1 103.2 0
Stamford 5ESE 05:10 PM 48 33 35 /24 93 / 44 22.1  (NW) 17 41.1 mph 336° @ 0248 AM 2 or 0.08 0.00 14.7 106.1 0
Sterling City 4WSW 05:10 PM 56 35 31 /23 68 / 32 16.1  (NW) 11.6 45.2 mph 316° @ 1215 AM 2.8 or 0.11 0.00 13 90.1 0
Stinnett 1NNW 05:10 PM 39 26 29 /21 89 / 65 19.4  (N) 15.3 48 mph 356° @ 0159 AM 1 or 0.04 0.00 8.5 67.6 0
Sundown 8WSW 05:10 PM 55 30 32 /20 88 / 26 14.4  (NW) 10 38 mph 335° @ 1220 AM 2.3 or 0.09 0.00 13 94 0
Sweetwater 11SW 05:10 PM 52 32 31 /23 85 / 35 18.9  (NW) 14.6 38.2 mph 331° @ 0123 AM 2.3 or 0.09 0.00 16.5 116.3 0
Tahoka 3NNE 05:10 PM 55 29 31 /23 88 / 30 16.8  (N) 12.4 41.4 mph 341° @ 1207 AM 2.5 or 0.1 0.00 14.9 107.8 0
Tarzan 2WNW 05:10 PM 57 33 32 /23 77 / 26 15.6  (NW) 11 37.6 mph 341° @ 1231 AM 2.5 or 0.1 0.00 15 105.1 0
Tatum NM 2SW 05:10 PM 54 26 31 /14 88 / 21 11.1  (NW) 8 30.5 mph 343° @ 0130 AM 2 or 0.08 0.00 15.7 112.4 0
Throckmorton 1SW 05:10 PM 44 33 36 /19 93 / 38 20.6  (NW) 12.5 43.8 mph 324° @ 1222 AM 1.8 or 0.07 0.00 15.2 110.7 0
Tulia 2ENE 05:10 PM 47 22 28 /19 88 / 42 19.2  (NW) 15 45 mph 334° @ 0115 AM 1.8 or 0.07 0.00 13.1 98.7 0
Turkey 2WSW 05:10 PM 47 29 29 /21 77 / 44 20.6  (NW) 16.3 43.9 mph 314° @ 0220 AM 2 or 0.08 0.00 12.2 92 0
Umbarger 3NNE 05:10 PM 46 20 32 /18 93 / 47 14  (N) 11 40.3 mph 349° @ 0133 AM 1.3 or 0.05 0.02 13.9 106.2 0
Van Horn 3ENE 05:10 PM 58 28 23 /12 62 / 18 6.4  (NW) 4.6 34.3 mph 341° @ 1221 AM 2 or 0.08 0.00 17 113.5 0
Vigo Park 05:10 PM 47 26 28 /22 87 / 41 20.9  (N) 15.6 44 mph 343° @ 1240 AM 1.8 or 0.07 0.00 13.3 100.7 0
Wall 2E 05:10 PM 56 38 37 /26 74 / 33 19.8  (NW) 15.4 40.8 mph 328° @ 1249 AM 2.8 or 0.11 0.00 15.5 106.5 0
Weinert 2NNE 05:10 PM 46 32 32 /20 90 / 37 22.3  (N) 16.3 42.2 mph 343° @ 0132 AM 2 or 0.08 0.02 15.1 111.2 0
Welch 05:10 PM 56 30 32 /24 82 / 29 16  (N) 13 36.5 mph 334° @ 0139 AM 2.3 or 0.09 0.00 14.9 106.5 0
White River Lake 6NW 05:10 PM 53 30 30 /21 88 / 29 21.1  (NW) 15.7 45.7 mph 331° @ 1205 AM 2.5 or 0.1 0.00 14.3 104.9 0
Wolfforth 6SSW 05:10 PM 53 28 31 /25 90 / 37 18.8  (NW) 14.7 41.4 mph 336° @ 1210 AM 2 or 0.08 0.00 14.6 106.2 0

WestTexas Mesonet Home    Site Map/Menu  National Weather Service Lubbock   Soil Data   Latest Observation Page   Previous  Date